createdAt,value
2023-02-26T00:00:03.186Z,99.99
2023-02-26T00:01:03.154Z,99.99
2023-02-26T00:02:03.203Z,99.99
2023-02-26T00:03:03.091Z,99.99
2023-02-26T00:04:02.989Z,99.99
2023-02-26T00:05:02.948Z,99.99
2023-02-26T00:06:02.882Z,99.99
2023-02-26T00:07:02.838Z,99.99
2023-02-26T00:08:03.239Z,99.99
2023-02-26T00:09:02.807Z,99.99
2023-02-26T00:10:02.697Z,99.99
2023-02-26T00:11:02.898Z,99.99
2023-02-26T00:12:02.847Z,99.99
2023-02-26T00:13:02.816Z,99.99
2023-02-26T00:14:02.510Z,99.99
2023-02-26T00:15:02.435Z,99.99
2023-02-26T00:16:02.385Z,99.99
2023-02-26T00:17:03.441Z,99.99
2023-02-26T00:18:02.289Z,99.99
2023-02-26T00:19:02.243Z,99.99
2023-02-26T00:20:02.582Z,99.99
2023-02-26T00:21:02.286Z,99.99
2023-02-26T00:22:02.357Z,99.99
2023-02-26T00:23:02.070Z,99.99
2023-02-26T00:24:02.095Z,99.99
2023-02-26T00:25:01.941Z,99.99
2023-02-26T00:26:01.896Z,99.99
2023-02-26T00:27:01.844Z,99.99
2023-02-26T00:28:01.799Z,99.99
2023-02-26T00:29:01.744Z,99.99
2023-02-26T00:30:01.708Z,99.99
2023-02-26T00:31:01.747Z,99.99
2023-02-26T00:32:01.719Z,99.99
2023-02-26T12:26:53.503Z,67.59
2023-02-26T12:27:53.426Z,67.12
2023-02-26T12:28:53.372Z,67.21
2023-02-26T12:29:53.343Z,66.17
2023-02-26T12:30:53.401Z,66.17
2023-02-26T12:31:53.404Z,66.17
2023-02-26T12:32:53.170Z,65.88
2023-02-26T12:33:53.119Z,65.44
2023-02-26T12:34:53.072Z,64.87
2023-02-26T12:35:53.021Z,64.40
2023-02-26T12:36:52.975Z,64.11
2023-02-26T12:37:52.927Z,63.26
2023-02-26T12:38:52.873Z,62.97
2023-02-26T12:39:52.838Z,62.31
2023-02-26T12:40:52.786Z,61.87
2023-02-26T12:41:52.728Z,60.75
2023-02-26T12:42:52.721Z,60.09
2023-02-26T12:43:52.658Z,59.17
2023-02-26T12:44:52.588Z,58.50
2023-02-26T12:45:52.538Z,58.59
2023-02-26T12:46:52.504Z,58.69
2023-02-26T12:47:52.445Z,58.22
2023-02-26T12:48:52.400Z,57.24
2023-02-26T12:49:52.352Z,57.24
2023-02-26T12:50:52.315Z,57.62
2023-02-26T12:51:52.258Z,58.16
2023-02-26T12:52:52.224Z,58.57
2023-02-26T12:53:52.165Z,57.65
2023-02-26T12:54:52.132Z,57.65
2023-02-26T12:55:52.074Z,58.47
2023-02-26T12:56:52.038Z,58.37
2023-02-26T12:58:35.385Z,58.40
2023-02-26T12:59:35.314Z,57.93
2023-02-26T13:00:35.311Z,57.07
2023-02-26T13:01:35.225Z,56.72
2023-02-26T13:02:35.181Z,56.44
2023-02-26T13:03:35.183Z,55.68
2023-02-26T13:04:35.083Z,55.74
2023-02-26T13:05:35.036Z,56.79
2023-02-26T13:06:34.993Z,57.07
2023-02-26T13:07:34.943Z,56.79
2023-02-26T13:08:34.902Z,56.22
2023-02-26T13:09:34.857Z,56.22
2023-02-26T13:10:34.810Z,56.12
2023-02-26T13:11:34.763Z,56.70
2023-02-26T13:12:34.755Z,56.10
2023-02-26T13:13:34.671Z,55.71
2023-02-26T13:14:34.643Z,56.31
2023-02-26T13:15:34.581Z,56.67
2023-02-26T13:16:34.602Z,56.29
2023-02-26T13:17:34.488Z,56.00
2023-02-26T13:18:34.440Z,55.81
2023-02-26T13:19:34.400Z,56.19
2023-02-26T13:20:34.356Z,56.88
2023-02-26T13:21:34.308Z,56.88
2023-02-26T13:22:34.269Z,57.26
2023-02-26T13:23:34.210Z,56.79
2023-02-26T13:24:34.165Z,56.88
2023-02-26T13:25:34.120Z,56.41
2023-02-26T13:26:34.077Z,56.41
2023-02-26T13:27:34.039Z,56.70
2023-02-26T13:28:33.986Z,56.79
2023-02-26T13:29:33.936Z,56.72
2023-02-26T13:30:33.982Z,57.01
2023-02-26T13:31:34.315Z,56.94
2023-02-26T13:32:33.919Z,55.04
2023-02-26T13:33:33.752Z,55.16
2023-02-26T13:34:33.716Z,54.30
2023-02-26T13:35:33.676Z,54.02
2023-02-26T13:36:35.378Z,52.90
2023-02-26T13:37:33.571Z,52.45
2023-02-26T13:38:33.529Z,51.50
2023-02-26T13:39:33.480Z,51.37
2023-02-26T13:40:33.437Z,50.99
2023-02-26T13:41:33.391Z,51.28
2023-02-26T13:43:33.303Z,51.35
2023-02-26T13:44:33.275Z,51.35
2023-02-26T13:45:33.246Z,51.23
2023-02-26T13:46:33.190Z,51.42
2023-02-26T13:47:33.125Z,51.58
2023-02-26T13:48:33.072Z,51.97
2023-02-26T13:49:33.030Z,52.89
2023-02-26T13:50:32.985Z,54.13
2023-02-26T13:51:32.945Z,53.55
2023-02-26T13:52:32.900Z,54.60
2023-02-26T13:54:32.817Z,54.79
2023-02-26T13:55:32.763Z,55.46
2023-02-26T13:56:32.722Z,54.69
2023-02-26T13:58:32.628Z,55.08
2023-02-26T13:59:32.581Z,55.01
2023-02-26T14:00:32.533Z,54.15
2023-02-26T14:01:32.543Z,53.11
2023-02-26T14:02:32.485Z,53.01
2023-02-26T14:03:32.404Z,52.53
2023-02-26T14:04:32.399Z,52.25
2023-02-26T14:05:32.306Z,53.11
2023-02-26T14:06:32.260Z,53.01
2023-02-26T14:07:32.218Z,53.11
2023-02-26T14:08:32.175Z,54.35
2023-02-26T14:09:32.130Z,54.27
2023-02-26T14:10:32.083Z,53.23
2023-02-26T14:11:32.038Z,53.70
2023-02-26T14:12:31.997Z,53.61
2023-02-26T14:13:31.943Z,53.52
2023-02-26T14:14:31.898Z,53.23
2023-02-26T14:15:31.855Z,53.13
2023-02-26T14:16:31.852Z,52.28
2023-02-26T14:17:31.772Z,52.37
2023-02-26T14:18:31.780Z,51.54
2023-02-26T14:19:31.672Z,51.82
2023-02-26T14:20:31.631Z,51.45
2023-02-26T14:21:31.589Z,51.25
2023-02-26T14:22:31.538Z,50.80
2023-02-26T14:23:31.497Z,49.59
2023-02-26T14:24:31.443Z,49.11
2023-02-26T14:25:31.405Z,48.83
2023-02-26T14:26:31.354Z,48.83
2023-02-26T14:27:31.343Z,48.61
2023-02-26T14:28:31.273Z,48.68
2023-02-26T14:29:31.223Z,48.97
2023-02-26T14:30:31.301Z,49.35
2023-02-26T14:31:31.499Z,49.54
2023-02-26T14:32:31.104Z,49.66
2023-02-26T14:33:31.047Z,49.85
2023-02-26T14:34:31.028Z,49.37
2023-02-26T14:35:30.968Z,49.37
2023-02-26T14:36:30.908Z,49.35
2023-02-26T14:37:30.890Z,49.26
2023-02-26T14:38:30.825Z,49.37
2023-02-26T14:39:30.776Z,49.37
2023-02-26T14:40:30.732Z,49.40
2023-02-26T14:41:30.705Z,48.44
2023-02-26T14:42:30.641Z,48.57
2023-02-26T14:43:30.598Z,47.99
2023-02-26T14:44:30.550Z,47.42
2023-02-26T14:45:30.515Z,47.34
2023-02-26T14:46:30.576Z,45.72
2023-02-26T14:47:30.424Z,45.34
2023-02-26T14:48:30.400Z,45.27
2023-02-26T14:49:30.337Z,44.79
2023-02-26T14:50:30.321Z,44.02
2023-02-26T14:51:30.247Z,43.76
2023-02-26T14:52:30.239Z,43.30
2023-02-26T14:53:30.202Z,42.08
2023-02-26T14:54:30.161Z,42.30
2023-02-26T14:55:30.092Z,42.20
2023-02-26T14:56:30.029Z,41.53
2023-02-26T14:57:29.988Z,41.05
2023-02-26T14:58:29.942Z,41.61
2023-02-26T14:59:29.910Z,42.47
2023-02-26T15:00:29.859Z,42.25
2023-02-26T15:01:29.855Z,42.54
2023-02-26T15:02:29.892Z,42.35
2023-02-26T15:03:29.734Z,42.16
2023-02-26T15:04:29.685Z,41.87
2023-02-26T15:05:29.653Z,42.24
2023-02-26T15:06:29.622Z,42.57
2023-02-26T15:07:29.575Z,43.03
2023-02-26T15:08:29.512Z,44.08
2023-02-26T15:09:29.474Z,45.65
2023-02-26T15:10:29.437Z,44.89
2023-02-26T15:11:29.384Z,44.15
2023-02-26T15:12:29.338Z,44.31
2023-02-26T15:13:29.302Z,44.10
2023-02-26T15:14:29.255Z,44.01
2023-02-26T15:15:29.279Z,44.58
2023-02-26T15:16:29.165Z,45.92
2023-02-26T15:17:29.138Z,44.84
2023-02-26T15:18:29.085Z,45.20
2023-02-26T15:19:29.064Z,45.58
2023-02-26T15:20:29.025Z,46.70
2023-02-26T15:21:28.955Z,47.18
2023-02-26T15:22:28.934Z,47.94
2023-02-26T15:23:28.868Z,48.58
2023-02-26T15:24:28.849Z,48.87
2023-02-26T15:25:28.786Z,48.97
2023-02-26T15:26:29.266Z,48.56
2023-02-26T15:27:28.694Z,49.32
2023-02-26T15:28:28.650Z,50.15
2023-02-26T15:29:28.605Z,50.73
2023-02-26T15:30:28.564Z,51.30
2023-02-26T15:31:28.664Z,52.53
2023-02-26T15:32:28.632Z,53.11
2023-02-26T15:33:28.428Z,53.08
2023-02-26T15:34:28.388Z,53.65
2023-02-26T15:35:28.341Z,54.13
2023-02-26T15:36:28.764Z,54.38
2023-02-26T15:37:28.260Z,54.10
2023-02-26T15:38:28.227Z,54.69
2023-02-26T15:39:28.166Z,54.32
2023-02-26T15:40:28.135Z,54.03
2023-02-26T15:41:28.072Z,53.81
2023-02-26T15:42:28.026Z,54.10
2023-02-26T15:43:28.003Z,54.38
2023-02-26T15:44:27.941Z,54.86
2023-02-26T15:45:27.899Z,55.05
2023-02-26T15:46:28.413Z,54.77
2023-02-26T15:47:27.809Z,54.67
2023-02-26T15:48:27.759Z,54.55
2023-02-26T15:49:27.717Z,55.11
2023-02-26T15:50:27.699Z,55.69
2023-02-26T15:51:27.625Z,56.42
2023-02-26T15:52:27.587Z,56.23
2023-02-26T15:53:27.534Z,56.99
2023-02-26T15:54:27.532Z,56.99
2023-02-26T15:55:27.473Z,57.84
2023-02-26T15:56:27.823Z,58.32
2023-02-26T15:57:27.368Z,58.29
2023-02-26T15:58:27.324Z,59.33
2023-02-26T15:59:27.268Z,59.14
2023-02-26T16:00:27.234Z,59.05
2023-02-26T16:01:27.238Z,59.81
2023-02-26T16:02:27.120Z,60.00
2023-02-26T16:03:27.099Z,60.10
2023-02-26T16:04:27.029Z,60.10
2023-02-26T16:05:26.988Z,60.00
2023-02-26T16:06:27.417Z,59.91
2023-02-26T16:07:26.893Z,59.62
2023-02-26T16:08:26.849Z,59.91
2023-02-26T16:09:26.799Z,60.10
2023-02-26T16:10:26.771Z,60.10
2023-02-26T16:11:26.710Z,60.00
2023-02-26T16:12:26.661Z,60.19
2023-02-26T16:13:26.613Z,59.88
2023-02-26T16:14:26.570Z,60.73
2023-02-26T16:15:26.528Z,61.49
2023-02-26T16:16:26.968Z,61.49
2023-02-26T16:17:26.435Z,61.77
2023-02-26T16:18:26.388Z,62.05
2023-02-26T16:19:26.338Z,62.34
2023-02-26T16:21:26.238Z,62.24
2023-02-26T16:22:26.196Z,62.62
2023-02-26T16:23:26.157Z,62.43
2023-02-26T16:24:26.100Z,62.82
2023-02-26T16:25:26.054Z,62.43
2023-02-26T16:26:26.445Z,62.34
2023-02-26T16:27:25.959Z,62.91
2023-02-26T16:28:25.910Z,62.82
2023-02-26T16:29:25.862Z,63.48
2023-02-26T16:30:25.817Z,63.73
2023-02-26T16:31:25.906Z,63.64
2023-02-26T16:32:25.863Z,63.73
2023-02-26T16:33:25.684Z,63.73
2023-02-26T16:34:25.638Z,63.45
2023-02-26T16:35:25.587Z,63.73
2023-02-26T16:36:25.823Z,64.11
2023-02-26T16:37:25.497Z,64.78
2023-02-26T16:38:25.440Z,64.87
2023-02-26T16:39:25.408Z,64.68
2023-02-26T16:40:25.345Z,64.87
2023-02-26T16:41:25.750Z,64.78
2023-02-26T16:42:25.272Z,65.06
2023-02-26T16:43:25.203Z,64.78
2023-02-26T16:44:25.152Z,64.68
2023-02-26T16:45:25.109Z,64.78
2023-02-26T16:47:25.836Z,63.64
2023-02-26T16:48:24.961Z,63.82
2023-02-26T16:49:24.966Z,63.73
2023-02-26T16:50:24.874Z,63.54
2023-02-26T16:51:24.819Z,64.11
2023-02-26T16:52:24.770Z,64.20
2023-02-26T16:53:24.728Z,64.11
2023-02-26T16:54:24.675Z,64.68
2023-02-26T16:55:24.631Z,64.87
2023-02-26T16:56:24.576Z,64.59
2023-02-26T16:57:24.532Z,65.34
2023-02-26T16:58:24.503Z,65.31
2023-02-26T16:59:24.445Z,65.53
2023-02-26T17:00:24.386Z,65.50
2023-02-26T17:01:24.643Z,65.97
2023-02-26T17:02:24.303Z,66.54
2023-02-26T17:03:24.250Z,66.45
2023-02-26T17:04:24.246Z,67.02
2023-02-26T17:05:24.152Z,67.11
2023-02-26T17:06:24.100Z,66.83
2023-02-26T17:07:24.055Z,66.93
2023-02-26T17:08:24.012Z,67.02
2023-02-26T17:09:23.961Z,66.74
2023-02-26T17:10:23.911Z,66.83
2023-02-26T17:11:24.188Z,67.02
2023-02-26T17:12:23.815Z,67.02
2023-02-26T17:13:23.767Z,66.93
2023-02-26T17:14:23.749Z,66.74
2023-02-26T17:15:23.720Z,66.93
2023-02-26T17:16:23.648Z,67.68
2023-02-26T17:17:23.577Z,68.25
2023-02-26T17:18:23.563Z,68.06
2023-02-26T17:19:23.493Z,67.87
2023-02-26T17:20:23.440Z,68.63
2023-02-26T17:22:23.344Z,68.44
2023-02-26T17:23:23.298Z,67.96
2023-02-26T17:24:23.269Z,69.38
2023-02-26T17:25:23.215Z,69.57
2023-02-26T17:26:24.172Z,69.57
2023-02-26T17:27:23.102Z,69.29
2023-02-26T17:28:23.068Z,69.77
2023-02-26T17:29:23.077Z,69.57
2023-02-26T17:30:22.973Z,69.67
2023-02-26T17:31:22.991Z,69.82
2023-02-26T17:32:23.047Z,69.48
2023-02-26T17:33:22.832Z,70.49
2023-02-26T17:34:22.763Z,70.20
2023-02-26T17:35:22.723Z,70.05
2023-02-26T17:36:22.665Z,71.09
2023-02-26T17:37:22.624Z,71.25
2023-02-26T17:38:22.571Z,71.72
2023-02-26T17:39:22.539Z,71.81
2023-02-26T17:40:22.477Z,71.62
2023-02-26T17:41:22.425Z,71.53
2023-02-26T17:42:22.376Z,72.48
2023-02-26T17:43:22.371Z,73.24
2023-02-26T17:44:22.294Z,73.33
2023-02-26T17:45:22.231Z,73.52
2023-02-26T17:46:22.208Z,73.24
2023-02-26T17:47:22.141Z,72.57
2023-02-26T17:48:22.095Z,72.57
2023-02-26T17:49:22.044Z,72.48
2023-02-26T17:50:21.996Z,72.00
2023-02-26T17:51:21.952Z,72.77
2023-02-26T17:52:21.902Z,72.86
2023-02-26T17:53:21.858Z,72.96
2023-02-26T17:54:21.810Z,72.67
2023-02-26T17:55:21.765Z,72.96
2023-02-26T17:56:21.726Z,72.67
2023-02-26T17:57:21.662Z,73.24
2023-02-26T17:58:21.616Z,73.52
2023-02-26T17:59:21.569Z,73.24
2023-02-26T18:00:21.517Z,73.52
2023-02-26T18:01:21.549Z,74.18
2023-02-26T18:02:21.453Z,74.09
2023-02-26T18:03:21.382Z,74.09
2023-02-26T18:04:21.492Z,74.47
2023-02-26T18:05:21.284Z,73.80
2023-02-26T18:06:21.233Z,74.18
2023-02-26T18:07:21.182Z,74.09
2023-02-26T18:08:21.144Z,73.80
2023-02-26T18:09:21.095Z,73.99
2023-02-26T18:10:21.368Z,74.09
2023-02-26T18:11:20.993Z,74.47
2023-02-26T18:12:20.948Z,74.85
2023-02-26T18:13:20.905Z,74.85
2023-02-26T18:14:20.850Z,74.95
2023-02-26T18:15:20.799Z,74.85
2023-02-26T18:16:20.796Z,74.75
2023-02-26T18:17:20.707Z,74.28
2023-02-26T18:18:20.692Z,75.23
2023-02-26T18:19:20.630Z,75.13
2023-02-26T18:20:20.562Z,74.95
2023-02-26T18:21:20.520Z,74.85
2023-02-26T18:22:20.467Z,74.95
2023-02-26T18:23:20.468Z,75.79
2023-02-26T18:24:20.371Z,75.79
2023-02-26T18:25:20.328Z,75.60
2023-02-26T18:26:20.279Z,75.70
2023-02-26T18:27:20.259Z,75.70
2023-02-26T18:28:20.201Z,75.60
2023-02-26T18:29:20.131Z,75.42
2023-02-26T18:30:20.092Z,75.42
2023-02-26T18:31:20.296Z,75.79
2023-02-26T18:32:20.183Z,75.32
2023-02-26T18:33:19.951Z,76.17
2023-02-26T18:34:19.904Z,76.17
2023-02-26T18:35:19.837Z,76.08
2023-02-26T18:36:19.790Z,75.89
2023-02-26T18:37:22.968Z,76.17
2023-02-26T18:38:19.692Z,76.36
2023-02-26T18:39:19.652Z,76.55
2023-02-26T18:40:19.597Z,76.55
2023-02-26T18:41:19.545Z,76.55
2023-02-26T18:42:19.503Z,76.65
2023-02-26T18:43:19.462Z,77.03
2023-02-26T18:44:19.417Z,77.50
2023-02-26T18:45:19.353Z,77.22
2023-02-26T18:46:19.325Z,77.22
2023-02-26T18:47:19.268Z,77.22
2023-02-26T18:48:19.211Z,77.50
2023-02-26T18:49:19.171Z,78.16
2023-02-26T18:50:19.128Z,77.59
2023-02-26T18:51:19.067Z,78.16
2023-02-26T18:52:19.020Z,77.22
2023-02-26T18:53:18.968Z,77.88
2023-02-26T18:54:18.918Z,77.40
2023-02-26T18:55:18.884Z,77.88
2023-02-26T18:56:18.824Z,77.69
2023-02-26T18:57:18.772Z,77.59
2023-02-26T18:58:18.732Z,77.50
2023-02-26T18:59:18.681Z,77.40
2023-02-26T19:00:18.630Z,77.50
2023-02-26T19:01:18.636Z,77.59
2023-02-26T19:02:18.571Z,78.07
2023-02-26T19:03:18.492Z,78.07
2023-02-26T19:04:18.437Z,78.16
2023-02-26T19:05:18.392Z,77.59
2023-02-26T19:06:18.380Z,78.07
2023-02-26T19:07:18.289Z,78.07
2023-02-26T19:08:18.247Z,78.16
2023-02-26T19:09:18.199Z,77.97
2023-02-26T19:10:18.153Z,78.26
2023-02-26T19:11:18.106Z,78.16
2023-02-26T19:12:18.055Z,77.97
2023-02-26T19:13:18.007Z,77.88
2023-02-26T19:14:17.953Z,77.59
2023-02-26T19:15:17.920Z,78.07
2023-02-26T19:16:17.859Z,77.88
2023-02-26T19:17:17.816Z,77.97
2023-02-26T19:18:17.766Z,77.88
2023-02-26T19:19:17.711Z,77.69
2023-02-26T19:20:17.660Z,77.31
2023-02-26T19:21:17.614Z,78.07
2023-02-26T19:22:17.587Z,77.31
2023-02-26T19:23:17.525Z,77.88
2023-02-26T19:24:18.480Z,77.69
2023-02-26T19:25:17.424Z,77.69
2023-02-26T19:26:18.591Z,77.59
2023-02-26T19:27:17.351Z,77.97
2023-02-26T19:28:17.280Z,78.07
2023-02-26T19:29:17.239Z,78.16
2023-02-26T19:30:17.186Z,78.26
2023-02-26T19:31:17.312Z,78.16
2023-02-26T19:32:17.326Z,78.07
2023-02-26T19:33:19.319Z,78.16
2023-02-26T19:34:16.997Z,78.16
2023-02-26T19:35:16.950Z,77.88
2023-02-26T19:36:16.971Z,78.35
2023-02-26T19:37:16.879Z,78.64
2023-02-26T19:38:16.826Z,78.64
2023-02-26T19:39:16.777Z,78.64
2023-02-26T19:40:16.732Z,78.73
2023-02-26T19:41:16.670Z,78.54
2023-02-26T19:42:16.607Z,78.92
2023-02-26T19:43:16.869Z,79.21
2023-02-26T19:44:16.516Z,79.02
2023-02-26T19:45:16.474Z,79.21
2023-02-26T19:46:16.446Z,78.54
2023-02-26T19:47:16.376Z,78.83
2023-02-26T19:48:16.322Z,78.83
2023-02-26T19:49:16.294Z,78.54
2023-02-26T19:50:16.290Z,79.21
2023-02-26T19:51:16.193Z,79.11
2023-02-26T19:52:16.141Z,79.68
2023-02-26T19:53:16.091Z,79.30
2023-02-26T19:54:16.046Z,80.34
2023-02-26T19:55:15.978Z,80.34
2023-02-26T19:56:15.934Z,80.44
2023-02-26T19:57:15.881Z,80.25
2023-02-26T19:58:15.830Z,80.25
2023-02-26T19:59:15.790Z,80.34
2023-02-26T20:00:15.738Z,80.53
2023-02-26T20:01:15.690Z,80.44
2023-02-26T20:02:15.642Z,80.15
2023-02-26T20:03:15.592Z,80.25
2023-02-26T20:04:15.545Z,80.44
2023-02-26T20:05:15.504Z,80.25
2023-02-26T20:06:15.449Z,80.44
2023-02-26T20:07:15.426Z,80.34
2023-02-26T20:08:15.356Z,80.72
2023-02-26T20:09:15.307Z,80.53
2023-02-26T20:10:15.273Z,80.44
2023-02-26T20:11:15.221Z,80.53
2023-02-26T20:12:15.172Z,80.63
2023-02-26T20:13:15.129Z,81.10
2023-02-26T20:14:15.056Z,80.72
2023-02-26T20:15:15.010Z,81.01
2023-02-26T20:16:14.998Z,81.01
2023-02-26T20:17:14.960Z,81.29
2023-02-26T20:18:14.866Z,80.91
2023-02-26T20:19:14.815Z,81.29
2023-02-26T20:20:14.769Z,81.01
2023-02-26T20:21:14.718Z,81.20
2023-02-26T20:22:14.686Z,81.48
2023-02-26T20:23:14.642Z,81.10
2023-02-26T20:24:14.656Z,81.20
2023-02-26T20:25:14.524Z,81.57
2023-02-26T20:26:14.496Z,81.76
2023-02-26T20:27:14.433Z,81.67
2023-02-26T20:28:14.379Z,81.86
2023-02-26T20:29:14.338Z,81.76
2023-02-26T20:30:14.288Z,81.67
2023-02-26T20:31:14.308Z,81.67
2023-02-26T20:32:14.388Z,81.67
2023-02-26T20:33:14.247Z,82.05
2023-02-26T20:34:14.136Z,82.71
2023-02-26T20:35:14.045Z,83.18
2023-02-26T20:36:14.074Z,82.90
2023-02-26T20:37:13.945Z,83.09
2023-02-26T20:38:13.896Z,82.90
2023-02-26T20:39:13.853Z,82.90
2023-02-26T20:40:13.801Z,82.52
2023-02-26T20:41:13.752Z,82.43
2023-02-26T20:42:13.726Z,82.62
2023-02-26T20:43:13.660Z,83.09
2023-02-26T20:44:13.611Z,82.81
2023-02-26T20:45:13.965Z,82.90
2023-02-26T20:46:13.512Z,82.62
2023-02-26T20:47:13.466Z,82.90
2023-02-26T20:48:13.408Z,83.00
2023-02-26T20:49:13.380Z,82.62
2023-02-26T20:50:13.347Z,82.81
2023-02-26T20:52:13.218Z,82.33
2023-02-26T20:53:13.168Z,82.05
2023-02-26T20:54:13.124Z,82.33
2023-02-26T20:55:13.082Z,82.24
2023-02-26T20:56:13.020Z,82.52
2023-02-26T20:57:12.974Z,83.28
2023-02-26T20:58:12.971Z,83.00
2023-02-26T20:59:12.879Z,82.52
2023-02-26T21:00:12.847Z,83.00
2023-02-26T21:01:12.843Z,83.56
2023-02-26T21:02:12.865Z,83.56
2023-02-26T21:03:12.685Z,83.00
2023-02-26T21:04:12.636Z,83.00
2023-02-26T21:05:12.584Z,83.00
2023-02-26T21:06:12.540Z,82.43
2023-02-26T21:07:12.617Z,82.14
2023-02-26T21:08:15.870Z,82.33
2023-02-26T21:09:12.400Z,82.05
2023-02-26T21:10:12.357Z,81.95
2023-02-26T21:11:12.295Z,82.33
2023-02-26T21:12:12.246Z,82.43
2023-02-26T21:13:12.202Z,81.95
2023-02-26T21:14:12.184Z,82.05
2023-02-26T21:15:12.119Z,82.33
2023-02-26T21:16:12.089Z,82.14
2023-02-26T21:17:12.009Z,82.62
2023-02-26T21:18:11.968Z,82.71
2023-02-26T21:19:11.929Z,82.43
2023-02-26T21:20:11.867Z,82.33
2023-02-26T21:21:11.823Z,82.33
2023-02-26T21:22:11.764Z,82.62
2023-02-26T21:23:11.720Z,82.52
2023-02-26T21:24:11.692Z,82.81
2023-02-26T21:25:11.625Z,82.24
2023-02-26T21:26:11.572Z,82.62
2023-02-26T21:27:11.528Z,82.43
2023-02-26T21:28:11.488Z,82.33
2023-02-26T21:29:11.423Z,82.43
2023-02-26T21:30:11.396Z,82.62
2023-02-26T21:31:11.466Z,81.95
2023-02-26T21:32:11.383Z,82.71
2023-02-26T21:33:11.237Z,83.00
2023-02-26T21:34:30.286Z,83.18
2023-02-26T21:35:11.135Z,82.81
2023-02-26T21:36:11.086Z,82.33
2023-02-26T21:37:11.039Z,82.52
2023-02-26T21:38:10.992Z,81.95
2023-02-26T21:39:10.946Z,82.05
2023-02-26T21:40:10.897Z,82.62
2023-02-26T21:41:10.856Z,82.43
2023-02-26T21:42:10.799Z,82.33
2023-02-26T21:43:10.760Z,82.52
2023-02-26T21:44:10.700Z,83.00
2023-02-26T21:45:10.652Z,82.43
2023-02-26T21:46:10.663Z,82.52
2023-02-26T21:47:10.564Z,83.00
2023-02-26T21:48:10.509Z,83.18
2023-02-26T21:49:10.457Z,83.00
2023-02-26T21:50:10.408Z,83.14
2023-02-26T21:51:10.365Z,83.43
2023-02-26T21:52:10.315Z,83.52
2023-02-26T21:53:10.262Z,83.33
2023-02-26T21:54:10.225Z,83.62
2023-02-26T21:55:10.168Z,84.19
2023-02-26T21:56:10.123Z,84.09
2023-02-26T21:57:10.080Z,84.75
2023-02-26T21:58:10.021Z,84.66
2023-02-26T21:59:09.979Z,84.66
2023-02-26T22:00:09.920Z,85.32
2023-02-26T22:01:09.907Z,85.61
2023-02-26T22:02:09.877Z,86.55
2023-02-26T22:03:09.781Z,86.36
2023-02-26T22:04:09.726Z,86.83
2023-02-26T22:05:09.678Z,87.31
2023-02-26T22:06:09.631Z,88.07
2023-02-26T22:07:09.583Z,88.45
2023-02-26T22:08:09.532Z,89.11
2023-02-26T22:09:09.483Z,89.30
2023-02-26T22:10:09.450Z,90.25
2023-02-26T22:11:09.394Z,90.25
2023-02-26T22:12:09.358Z,90.44
2023-02-26T22:13:09.289Z,89.68
2023-02-26T22:14:09.240Z,90.34
2023-02-26T22:15:09.228Z,89.87
2023-02-26T22:16:09.135Z,90.81
2023-02-26T22:17:09.107Z,91.48
2023-02-26T22:18:09.066Z,91.95
2023-02-26T22:19:09.018Z,92.57
2023-02-26T22:20:08.942Z,93.04
2023-02-26T22:21:08.925Z,93.23
2023-02-26T22:22:08.844Z,93.89
2023-02-26T22:23:08.801Z,94.56
2023-02-26T22:24:08.747Z,94.56
2023-02-26T22:25:08.702Z,95.31
2023-02-26T22:26:08.652Z,95.88
2023-02-26T22:27:08.622Z,95.40
2023-02-26T22:28:08.551Z,96.16
2023-02-26T22:29:08.505Z,96.35
2023-02-26T22:30:08.455Z,96.83
2023-02-26T22:31:08.589Z,96.73
2023-02-26T22:32:08.426Z,97.02
2023-02-26T22:33:08.310Z,97.39
2023-02-26T22:34:08.287Z,97.20
2023-02-26T22:35:08.245Z,97.58
2023-02-26T22:36:08.163Z,98.25
2023-02-26T22:37:08.115Z,98.82
2023-02-26T22:39:08.037Z,99.66
2023-02-26T22:40:07.974Z,99.76
2023-02-26T22:41:07.919Z,99.99
2023-02-26T22:42:07.872Z,99.99
2023-02-26T22:43:07.898Z,99.99
2023-02-26T22:44:07.775Z,99.99
2023-02-26T22:45:07.728Z,99.99
2023-02-26T22:46:07.758Z,99.99
2023-02-26T22:47:07.662Z,99.99
2023-02-26T22:48:07.576Z,99.99
2023-02-26T22:49:07.524Z,99.99
2023-02-26T22:50:07.508Z,99.99
2023-02-26T22:51:07.435Z,99.99
2023-02-26T22:52:07.385Z,99.99
2023-02-26T22:53:07.340Z,99.99
2023-02-26T22:54:07.281Z,99.99
2023-02-26T22:55:07.231Z,99.99
2023-02-26T22:56:07.183Z,99.99
2023-02-26T22:57:07.129Z,99.99
2023-02-26T22:58:07.082Z,99.99
2023-02-26T22:59:07.040Z,99.99
2023-02-26T23:00:06.986Z,99.99
2023-02-26T23:01:07.016Z,99.99
2023-02-26T23:02:06.899Z,99.99
2023-02-26T23:03:06.842Z,99.99
2023-02-26T23:04:06.868Z,99.99
2023-02-26T23:05:06.739Z,99.99
2023-02-26T23:06:06.709Z,99.99
2023-02-26T23:07:06.636Z,99.99
2023-02-26T23:08:06.591Z,99.99
2023-02-26T23:09:06.569Z,99.99
2023-02-26T23:10:06.492Z,99.99
2023-02-26T23:11:06.455Z,99.99
2023-02-26T23:12:06.400Z,99.99
2023-02-26T23:13:06.339Z,99.99
2023-02-26T23:14:06.296Z,99.99
2023-02-26T23:15:06.240Z,99.99
2023-02-26T23:16:06.232Z,99.99
2023-02-26T23:17:06.146Z,99.99
2023-02-26T23:18:06.104Z,99.99
2023-02-26T23:19:06.050Z,99.99
2023-02-26T23:20:06.022Z,99.99
2023-02-26T23:21:05.948Z,99.99
2023-02-26T23:22:05.913Z,99.99
2023-02-26T23:23:05.841Z,99.99
2023-02-26T23:24:05.793Z,99.99
2023-02-26T23:25:05.740Z,99.99
2023-02-26T23:26:05.696Z,99.99
2023-02-26T23:27:05.651Z,99.99
2023-02-26T23:28:05.596Z,99.99
2023-02-26T23:29:05.542Z,99.99
2023-02-26T23:30:05.500Z,99.99
2023-02-26T23:31:05.714Z,99.99
2023-02-26T23:32:05.553Z,99.99
2023-02-26T23:33:05.362Z,99.99
2023-02-26T23:34:05.295Z,99.99
2023-02-26T23:35:05.244Z,99.99
2023-02-26T23:36:05.195Z,99.99
2023-02-26T23:37:05.152Z,99.99
2023-02-26T23:38:05.115Z,99.99
2023-02-26T23:39:05.044Z,99.99
2023-02-26T23:40:05.006Z,99.99
2023-02-26T23:41:04.943Z,99.99
2023-02-26T23:42:04.894Z,99.99
2023-02-26T23:43:04.855Z,99.99
2023-02-26T23:44:04.793Z,99.99
